createdAt,value
2016-04-25T00:00:07.122Z,10.16
2016-04-25T00:01:07.156Z,10.07
2016-04-25T00:02:07.174Z,9.99
2016-04-25T00:03:07.191Z,9.98
2016-04-25T00:04:07.194Z,9.89
2016-04-25T00:05:07.214Z,9.94
2016-04-25T00:06:07.232Z,9.91
2016-04-25T00:07:07.249Z,9.94
2016-04-25T00:08:07.284Z,9.86
2016-04-25T00:09:07.286Z,9.91
2016-04-25T00:10:07.321Z,9.92
2016-04-25T00:11:07.339Z,9.89
2016-04-25T00:12:07.466Z,9.92
2016-04-25T00:13:07.390Z,9.97
2016-04-25T00:14:07.393Z,9.86
2016-04-25T00:15:07.412Z,9.87
2016-04-25T00:16:07.431Z,9.89
2016-04-25T00:17:07.449Z,9.83
2016-04-25T00:18:07.482Z,9.79
2016-04-25T00:19:07.484Z,9.84
2016-04-25T00:20:09.206Z,9.8
2016-04-25T00:21:07.523Z,9.83
2016-04-25T00:22:07.539Z,9.79
2016-04-25T00:23:07.548Z,9.77
2016-04-25T00:24:07.582Z,9.77
2016-04-25T00:25:07.585Z,9.66
2016-04-25T00:26:07.603Z,9.76
2016-04-25T00:27:09.434Z,9.83
2016-04-25T00:28:07.656Z,9.76
2016-04-25T00:29:07.658Z,9.69
2016-04-25T00:30:07.693Z,9.74
2016-04-25T00:31:07.695Z,9.65
2016-04-25T00:32:07.729Z,9.62
2016-04-25T00:33:07.748Z,9.74
2016-04-25T00:34:07.750Z,9.72
2016-04-25T00:35:07.784Z,9.68
2016-04-25T00:36:07.802Z,9.69
2016-04-25T00:37:07.806Z,9.68
2016-04-25T00:38:07.823Z,9.72
2016-04-25T00:39:07.842Z,9.74
2016-04-25T00:40:07.860Z,9.66
2016-04-25T00:41:07.878Z,9.54
2016-04-25T00:42:08.787Z,9.62
2016-04-25T00:43:08.025Z,9.58
2016-04-25T00:44:07.933Z,9.58
2016-04-25T00:45:07.952Z,9.61
2016-04-25T00:46:07.969Z,9.62
2016-04-25T00:47:07.989Z,9.54
2016-04-25T00:48:08.007Z,9.47
2016-04-25T00:49:08.041Z,9.54
2016-04-25T00:50:08.059Z,9.54
2016-04-25T00:51:08.077Z,9.5
2016-04-25T00:52:08.079Z,9.44
2016-04-25T00:53:08.114Z,9.46
2016-04-25T00:54:08.116Z,9.46
2016-04-25T00:55:07.979Z,9.44
2016-04-25T00:56:08.153Z,9.44
2016-04-25T00:57:08.032Z,9.44
2016-04-25T00:58:08.237Z,9.5
2016-04-25T00:59:08.209Z,9.4
2016-04-25T01:00:08.226Z,9.41
2016-04-25T01:01:08.244Z,9.41
2016-04-25T01:02:08.262Z,9.4
2016-04-25T01:03:08.282Z,9.34
2016-04-25T01:04:08.300Z,9.37
2016-04-25T01:05:08.334Z,9.39
2016-04-25T01:06:08.336Z,9.37
2016-04-25T01:07:08.355Z,9.23
2016-04-25T01:08:08.373Z,9.28
2016-04-25T01:09:08.392Z,9.29
2016-04-25T01:10:08.409Z,9.26
2016-04-25T01:11:08.427Z,9.28
2016-04-25T01:12:09.602Z,9.28
2016-04-25T01:13:08.574Z,9.26
2016-04-25T01:14:08.483Z,9.25
2016-04-25T01:15:08.501Z,9.23
2016-04-25T01:16:08.535Z,9.14
2016-04-25T01:17:08.538Z,9.14
2016-04-25T01:18:08.541Z,9.14
2016-04-25T01:19:08.574Z,9.16
2016-04-25T01:20:08.593Z,9.18
2016-04-25T01:21:08.610Z,9.18
2016-04-25T01:22:08.630Z,9.14
2016-04-25T01:23:08.648Z,9.1
2016-04-25T01:24:08.650Z,9.11
2016-04-25T01:25:08.684Z,9.1
2016-04-25T01:26:08.702Z,9.06
2016-04-25T01:27:08.159Z,9.08
2016-04-25T01:28:09.896Z,9.11
2016-04-25T01:29:08.742Z,9.04
2016-04-25T01:30:08.776Z,9.04
2016-04-25T01:31:08.779Z,9.04
2016-04-25T01:32:08.797Z,8.95
2016-04-25T01:33:08.831Z,9.06
2016-04-25T01:34:08.849Z,9.02
2016-04-25T01:35:08.867Z,8.99
2016-04-25T01:36:08.886Z,9.02
2016-04-25T01:37:08.904Z,8.95
2016-04-25T01:38:08.938Z,9.02
2016-04-25T01:39:08.925Z,8.95
2016-04-25T01:40:08.959Z,8.99
2016-04-25T01:41:08.978Z,8.94
2016-04-25T01:42:09.011Z,8.97
2016-04-25T01:43:10.044Z,8.95
2016-04-25T01:44:09.063Z,8.99
2016-04-25T01:45:09.050Z,8.99
2016-04-25T01:46:09.053Z,9
2016-04-25T01:47:09.072Z,8.95
2016-04-25T01:48:09.074Z,8.95
2016-04-25T01:49:09.108Z,9
2016-04-25T01:50:09.127Z,9
2016-04-25T01:51:09.144Z,8.97
2016-04-25T01:52:09.163Z,8.99
2016-04-25T01:53:09.182Z,8.99
2016-04-25T01:54:09.200Z,9.03
2016-04-25T01:55:09.218Z,8.95
2016-04-25T01:56:09.221Z,8.91
2016-04-25T01:57:09.145Z,8.95
2016-04-25T01:58:09.617Z,8.88
2016-04-25T01:59:09.291Z,8.94
2016-04-25T02:00:09.793Z,8.89
2016-04-25T02:01:09.360Z,9
2016-04-25T02:02:09.456Z,8.94
2016-04-25T02:03:09.349Z,8.92
2016-04-25T02:04:09.367Z,8.99
2016-04-25T02:05:09.386Z,8.88
2016-04-25T02:06:09.420Z,8.87
2016-04-25T02:07:09.423Z,8.94
2016-04-25T02:08:09.456Z,8.87
2016-04-25T02:09:09.475Z,8.92
2016-04-25T02:10:09.492Z,8.87
2016-04-25T02:11:09.496Z,8.88
2016-04-25T02:12:10.186Z,8.87
2016-04-25T02:13:09.782Z,8.92
2016-04-25T02:14:09.550Z,8.92
2016-04-25T02:15:09.584Z,8.88
2016-04-25T02:16:09.603Z,8.91
2016-04-25T02:17:09.605Z,8.88
2016-04-25T02:18:09.608Z,8.79
2016-04-25T02:19:09.704Z,8.82
2016-04-25T02:20:09.707Z,8.85
2016-04-25T02:21:09.695Z,8.87
2016-04-25T02:22:09.697Z,8.74
2016-04-25T02:23:09.715Z,8.87
2016-04-25T02:24:09.718Z,8.84
2016-04-25T02:25:09.735Z,8.85
2016-04-25T02:26:09.755Z,8.78
2016-04-25T02:27:09.774Z,8.82
2016-04-25T02:28:09.806Z,8.74
2016-04-25T02:29:09.810Z,8.78
2016-04-25T02:30:09.828Z,8.82
2016-04-25T02:31:09.846Z,8.76
2016-04-25T02:32:09.865Z,8.78
2016-04-25T02:33:09.883Z,8.78
2016-04-25T02:34:09.902Z,8.78
2016-04-25T02:35:09.904Z,8.88
2016-04-25T02:36:09.922Z,8.78
2016-04-25T02:37:09.972Z,8.78
2016-04-25T02:38:09.958Z,8.79
2016-04-25T02:39:09.977Z,8.71
2016-04-25T02:40:10.027Z,8.73
2016-04-25T02:41:10.029Z,8.73
2016-04-25T02:42:10.032Z,8.69
2016-04-25T02:43:09.753Z,8.74
2016-04-25T02:44:10.069Z,8.81
2016-04-25T02:45:10.087Z,8.69
2016-04-25T02:46:10.106Z,8.7
2016-04-25T02:47:10.124Z,8.71
2016-04-25T02:48:10.158Z,8.79
2016-04-25T02:49:10.145Z,8.73
2016-04-25T02:50:10.178Z,8.67
2016-04-25T02:51:10.181Z,8.69
2016-04-25T02:52:10.200Z,8.71
2016-04-25T02:53:10.233Z,8.7
2016-04-25T02:54:10.236Z,8.73
2016-04-25T02:55:10.254Z,8.67
2016-04-25T02:56:10.274Z,8.66
2016-04-25T02:57:10.291Z,8.71
2016-04-25T02:58:10.247Z,8.74
2016-04-25T02:59:10.328Z,8.7
2016-04-25T03:00:10.346Z,8.76
2016-04-25T03:01:10.365Z,8.74
2016-04-25T03:02:10.398Z,8.74
2016-04-25T03:03:10.386Z,8.73
2016-04-25T03:04:10.404Z,8.74
2016-04-25T03:05:10.437Z,8.73
2016-04-25T03:06:10.457Z,8.73
2016-04-25T03:07:10.474Z,8.69
2016-04-25T03:08:10.476Z,8.74
2016-04-25T03:09:10.495Z,8.7
2016-04-25T03:10:10.514Z,8.66
2016-04-25T03:11:10.532Z,8.69
2016-04-25T03:12:10.550Z,8.66
2016-04-25T03:13:10.428Z,8.7
2016-04-25T03:14:10.587Z,8.64
2016-04-25T03:15:10.620Z,8.64
2016-04-25T03:16:10.623Z,8.74
2016-04-25T03:17:10.642Z,8.63
2016-04-25T03:18:10.660Z,8.66
2016-04-25T03:19:10.679Z,8.67
2016-04-25T03:20:10.697Z,8.63
2016-04-25T03:21:10.715Z,8.7
2016-04-25T03:22:10.718Z,8.67
2016-04-25T03:23:10.752Z,8.66
2016-04-25T03:24:10.769Z,8.69
2016-04-25T03:25:10.788Z,8.66
2016-04-25T03:26:10.791Z,8.66
2016-04-25T03:27:10.810Z,8.58
2016-04-25T03:28:12.093Z,8.55
2016-04-25T03:29:10.862Z,8.6
2016-04-25T03:30:10.864Z,8.67
2016-04-25T03:31:10.882Z,8.56
2016-04-25T03:32:10.902Z,8.63
2016-04-25T03:33:10.918Z,8.58
2016-04-25T03:34:10.922Z,8.63
2016-04-25T03:35:10.940Z,8.55
2016-04-25T03:36:10.959Z,8.63
2016-04-25T03:37:10.993Z,8.6
2016-04-25T03:38:10.995Z,8.66
2016-04-25T03:39:11.014Z,8.56
2016-04-25T03:40:11.031Z,8.55
2016-04-25T03:41:11.065Z,8.53
2016-04-25T03:42:11.068Z,8.61
2016-04-25T03:43:11.071Z,8.52
2016-04-25T03:44:11.105Z,8.52
2016-04-25T03:45:11.123Z,8.51
2016-04-25T03:46:11.158Z,8.58
2016-04-25T03:47:11.145Z,8.6
2016-04-25T03:48:11.163Z,8.53
2016-04-25T03:49:11.197Z,8.53
2016-04-25T03:50:11.200Z,8.51
2016-04-25T03:51:11.217Z,8.52
2016-04-25T03:52:11.236Z,8.49
2016-04-25T03:53:11.255Z,8.51
2016-04-25T03:54:11.272Z,8.49
2016-04-25T03:55:11.291Z,8.46
2016-04-25T03:56:11.310Z,8.48
2016-04-25T03:57:11.328Z,8.53
2016-04-25T03:58:11.658Z,8.46
2016-04-25T03:59:11.348Z,8.51
2016-04-25T04:00:11.398Z,8.44
2016-04-25T04:01:11.386Z,8.44
2016-04-25T04:02:11.404Z,8.42
2016-04-25T04:03:11.437Z,8.41
2016-04-25T04:04:11.440Z,8.33
2016-04-25T04:05:11.459Z,8.37
2016-04-25T04:06:11.477Z,8.37
2016-04-25T04:07:11.495Z,8.36
2016-04-25T04:08:11.513Z,8.33
2016-04-25T04:09:11.532Z,8.41
2016-04-25T04:10:11.551Z,8.33
2016-04-25T04:11:11.568Z,8.41
2016-04-25T04:12:11.586Z,8.37
2016-04-25T04:13:11.605Z,8.36
2016-04-25T04:14:11.624Z,8.36
2016-04-25T04:15:11.642Z,8.37
2016-04-25T04:16:11.645Z,8.37
2016-04-25T04:17:11.678Z,8.37
2016-04-25T04:18:11.681Z,8.38
2016-04-25T04:19:11.715Z,8.36
2016-04-25T04:20:11.717Z,8.37
2016-04-25T04:21:11.014Z,8.36
2016-04-25T04:22:11.583Z,8.37
2016-04-25T04:23:12.320Z,8.34
2016-04-25T04:24:11.806Z,8.33
2016-04-25T04:25:11.809Z,8.3
2016-04-25T04:26:11.827Z,8.31
2016-04-25T04:27:11.831Z,8.34
2016-04-25T04:28:11.692Z,8.38
2016-04-25T04:29:12.570Z,8.28
2016-04-25T04:30:11.901Z,8.2
2016-04-25T04:31:11.904Z,8.31
2016-04-25T04:32:11.937Z,8.36
2016-04-25T04:33:11.941Z,8.36
2016-04-25T04:34:11.958Z,8.38
2016-04-25T04:35:11.961Z,8.3
2016-04-25T04:36:11.979Z,8.23
2016-04-25T04:37:12.013Z,8.33
2016-04-25T04:38:12.016Z,8.36
2016-04-25T04:39:12.034Z,8.33
2016-04-25T04:40:12.053Z,8.33
2016-04-25T04:41:12.056Z,8.31
2016-04-25T04:42:12.105Z,8.33
2016-04-25T04:43:12.326Z,8.31
2016-04-25T04:44:12.126Z,8.27
2016-04-25T04:45:12.128Z,8.33
2016-04-25T04:46:12.148Z,8.3
2016-04-25T04:47:12.165Z,8.31
2016-04-25T04:48:12.184Z,8.34
2016-04-25T04:49:12.233Z,8.3
2016-04-25T04:50:12.220Z,8.33
2016-04-25T04:51:12.239Z,8.41
2016-04-25T04:52:12.257Z,8.41
2016-04-25T04:53:12.275Z,8.38
2016-04-25T04:54:12.278Z,8.45
2016-04-25T04:55:12.311Z,8.45
2016-04-25T04:56:12.330Z,8.48
2016-04-25T04:57:12.333Z,8.38
2016-04-25T04:58:12.257Z,8.46
2016-04-25T04:59:12.369Z,8.48
2016-04-25T05:00:12.388Z,8.49
2016-04-25T05:01:12.406Z,8.44
2016-04-25T05:02:11.688Z,8.51
2016-04-25T05:03:12.458Z,8.45
2016-04-25T05:04:12.461Z,8.44
2016-04-25T05:05:12.480Z,8.46
2016-04-25T05:06:12.498Z,8.44
2016-04-25T05:07:12.501Z,8.53
2016-04-25T05:08:12.518Z,8.46
2016-04-25T05:09:12.615Z,8.51
2016-04-25T05:10:12.555Z,8.55
2016-04-25T05:11:12.590Z,8.51
2016-04-25T05:12:12.643Z,8.53
2016-04-25T05:13:12.642Z,8.53
2016-04-25T05:14:13.097Z,8.51
2016-04-25T05:15:12.658Z,8.51
2016-04-25T05:16:12.877Z,8.55
2016-04-25T05:17:12.761Z,8.52
2016-04-25T05:18:12.951Z,8.63
2016-04-25T05:19:13.001Z,8.58
2016-04-25T05:20:13.020Z,8.61
2016-04-25T05:21:12.881Z,8.63
2016-04-25T05:22:13.063Z,8.66
2016-04-25T05:23:12.994Z,8.63
2016-04-25T05:24:13.113Z,8.7
2016-04-25T05:25:13.136Z,8.64
2016-04-25T05:26:13.160Z,8.69
2016-04-25T05:27:13.165Z,8.69
2016-04-25T05:28:13.060Z,8.69
2016-04-25T05:29:13.314Z,8.63
2016-04-25T05:30:13.242Z,8.73
2016-04-25T05:31:13.246Z,8.73
2016-04-25T05:32:13.265Z,8.7
2016-04-25T05:33:13.285Z,8.71
2016-04-25T05:34:13.303Z,8.73
2016-04-25T05:35:13.182Z,8.7
2016-04-25T05:36:13.341Z,8.67
2016-04-25T05:37:13.361Z,8.66
2016-04-25T05:38:13.238Z,8.78
2016-04-25T05:39:13.383Z,8.73
2016-04-25T05:40:13.417Z,8.79
2016-04-25T05:41:13.420Z,8.74
2016-04-25T05:42:13.438Z,8.78
2016-04-25T05:43:13.348Z,8.79
2016-04-25T05:44:13.709Z,8.82
2016-04-25T05:45:13.492Z,8.84
2016-04-25T05:46:13.527Z,8.76
2016-04-25T05:47:13.530Z,8.82
2016-04-25T05:48:13.548Z,8.85
2016-04-25T05:49:13.567Z,8.85
2016-04-25T05:50:13.569Z,8.79
2016-04-25T05:51:13.602Z,8.82
2016-04-25T05:52:13.622Z,8.79
2016-04-25T05:53:13.655Z,8.82
2016-04-25T05:54:13.657Z,8.91
2016-04-25T05:55:13.661Z,8.88
2016-04-25T05:56:13.679Z,8.81
2016-04-25T05:57:13.697Z,8.91
2016-04-25T05:58:13.841Z,8.94
2016-04-25T05:59:13.624Z,8.92
2016-04-25T06:00:13.752Z,8.87
2016-04-25T06:01:13.754Z,8.95
2016-04-25T06:02:13.805Z,8.95
2016-04-25T06:03:13.807Z,8.99
2016-04-25T06:04:13.825Z,9.02
2016-04-25T06:05:13.844Z,8.95
2016-04-25T06:06:13.878Z,8.94
2016-04-25T06:07:13.865Z,9.03
2016-04-25T06:08:13.899Z,9.03
2016-04-25T06:09:13.901Z,9.04
2016-04-25T06:10:13.920Z,9.06
2016-04-25T06:11:13.953Z,9.06
2016-04-25T06:12:13.956Z,9.16
2016-04-25T06:13:13.990Z,9.11
2016-04-25T06:14:13.978Z,9.16
2016-04-25T06:15:13.995Z,9.18
2016-04-25T06:16:14.030Z,9.23
2016-04-25T06:17:14.048Z,9.23
2016-04-25T06:18:14.066Z,9.19
2016-04-25T06:19:14.084Z,9.28
2016-04-25T06:20:14.103Z,9.28
2016-04-25T06:21:14.121Z,9.31
2016-04-25T06:22:14.155Z,9.23
2016-04-25T06:23:14.159Z,9.34
2016-04-25T06:24:14.177Z,9.31
2016-04-25T06:25:14.195Z,9.39
2016-04-25T06:26:14.195Z,9.34
2016-04-25T06:27:14.214Z,9.41
2016-04-25T06:28:23.922Z,9.44
2016-04-25T06:29:16.284Z,9.47
2016-04-25T06:30:15.300Z,9.43
2016-04-25T06:31:14.287Z,9.51
2016-04-25T06:32:14.305Z,9.5
2016-04-25T06:33:14.324Z,9.54
2016-04-25T06:34:14.358Z,9.58
2016-04-25T06:35:14.360Z,9.55
2016-04-25T06:36:14.379Z,9.54
2016-04-25T06:37:14.381Z,9.51
2016-04-25T06:38:14.415Z,9.56
2016-04-25T06:39:14.434Z,9.54
2016-04-25T06:40:14.435Z,9.54
2016-04-25T06:41:14.455Z,9.68
2016-04-25T06:42:14.488Z,9.68
2016-04-25T06:43:15.413Z,9.66
2016-04-25T06:44:14.649Z,9.68
2016-04-25T06:45:14.528Z,9.65
2016-04-25T06:46:14.546Z,9.74
2016-04-25T06:47:14.565Z,9.61
2016-04-25T06:48:14.598Z,9.66
2016-04-25T06:49:14.602Z,9.74
2016-04-25T06:50:14.603Z,9.73
2016-04-25T06:51:14.466Z,9.77
2016-04-25T06:52:14.656Z,9.82
2016-04-25T06:53:14.659Z,9.82
2016-04-25T06:54:14.692Z,9.82
2016-04-25T06:55:14.712Z,9.8
2016-04-25T06:56:14.729Z,9.77
2016-04-25T06:57:14.732Z,9.87
2016-04-25T06:58:15.156Z,9.86
2016-04-25T06:59:15.894Z,9.8
2016-04-25T07:00:14.803Z,9.84
2016-04-25T07:01:14.806Z,9.83
2016-04-25T07:02:14.823Z,9.82
2016-04-25T07:03:14.841Z,9.8
2016-04-25T07:04:14.860Z,9.82
2016-04-25T07:05:14.878Z,9.8
2016-04-25T07:06:14.897Z,9.84
2016-04-25T07:07:14.900Z,9.74
2016-04-25T07:08:14.933Z,9.76
2016-04-25T07:09:14.952Z,9.8
2016-04-25T07:10:14.970Z,9.79
2016-04-25T07:11:14.988Z,9.83
2016-04-25T07:12:15.007Z,9.82
2016-04-25T07:13:14.916Z,9.79
2016-04-25T07:14:14.887Z,9.83
2016-04-25T07:15:15.062Z,9.86
2016-04-25T07:16:15.080Z,9.8
2016-04-25T07:17:15.098Z,9.83
2016-04-25T07:18:15.116Z,9.8
2016-04-25T07:19:15.119Z,9.83
2016-04-25T07:20:15.154Z,9.94
2016-04-25T07:21:15.156Z,9.89
2016-04-25T07:22:15.174Z,9.92
2016-04-25T07:23:15.192Z,9.87
2016-04-25T07:24:15.211Z,9.92
2016-04-25T07:25:15.245Z,9.94
2016-04-25T07:26:15.248Z,10.04
2016-04-25T07:27:15.281Z,9.97
2016-04-25T07:28:14.878Z,9.94
2016-04-25T07:29:15.162Z,9.92
2016-04-25T07:30:15.320Z,10.01
2016-04-25T07:31:15.339Z,10.04
2016-04-25T07:32:15.358Z,10.07
2016-04-25T07:33:15.376Z,10.16
2016-04-25T07:34:15.394Z,10.16
2016-04-25T07:35:15.412Z,10.19
2016-04-25T07:36:15.447Z,10.3
2016-04-25T07:37:15.449Z,10.23
2016-04-25T07:38:15.467Z,10.25
2016-04-25T07:39:15.501Z,10.23
2016-04-25T07:40:15.489Z,10.22
2016-04-25T07:41:15.522Z,10.22
2016-04-25T07:42:15.556Z,10.22
2016-04-25T07:43:16.183Z,10.13
2016-04-25T07:44:15.280Z,10.23
2016-04-25T07:45:15.579Z,10.1
2016-04-25T07:46:15.614Z,10.16
2016-04-25T07:47:15.632Z,10.09
2016-04-25T07:48:15.651Z,10.1
2016-04-25T07:49:15.668Z,10.15
2016-04-25T07:50:15.687Z,10.17
2016-04-25T07:51:15.705Z,10.2
2016-04-25T07:52:15.723Z,10.23
2016-04-25T07:53:15.743Z,10.26
2016-04-25T07:54:15.760Z,10.22
2016-04-25T07:55:15.779Z,10.26
2016-04-25T07:56:15.798Z,10.33
2016-04-25T07:57:15.815Z,10.23
2016-04-25T07:58:15.817Z,10.23
2016-04-25T07:59:16.259Z,10.22
2016-04-25T08:00:15.854Z,10.38
2016-04-25T08:01:15.873Z,10.41
2016-04-25T08:02:15.907Z,10.42
2016-04-25T08:03:15.925Z,10.54
2016-04-25T08:04:15.944Z,10.64
2016-04-25T08:05:15.962Z,10.68
2016-04-25T08:06:15.980Z,10.74
2016-04-25T08:07:15.998Z,10.79
2016-04-25T08:08:16.033Z,10.78
2016-04-25T08:09:16.035Z,10.76
2016-04-25T08:10:16.038Z,10.75
2016-04-25T08:11:16.072Z,10.82
2016-04-25T08:12:16.091Z,10.87
2016-04-25T08:13:16.101Z,10.84
2016-04-25T08:14:15.964Z,10.75
2016-04-25T08:15:16.139Z,10.9
2016-04-25T08:16:16.156Z,10.74
2016-04-25T08:17:16.174Z,10.84
2016-04-25T08:18:16.209Z,10.82
2016-04-25T08:19:16.211Z,10.75
2016-04-25T08:20:16.230Z,10.71
2016-04-25T08:21:16.247Z,10.81
2016-04-25T08:22:16.283Z,10.72
2016-04-25T08:23:16.270Z,10.72
2016-04-25T08:24:16.304Z,10.76
2016-04-25T08:25:16.306Z,10.82
2016-04-25T08:26:16.325Z,10.79
2016-04-25T08:27:16.359Z,10.76
2016-04-25T08:28:17.127Z,10.87
2016-04-25T08:29:16.380Z,10.9
2016-04-25T08:30:16.398Z,10.9
2016-04-25T08:31:16.433Z,10.87
2016-04-25T08:32:16.450Z,10.96
2016-04-25T08:33:16.500Z,10.93
2016-04-25T08:34:18.346Z,11.05
2016-04-25T08:35:16.506Z,11.1
2016-04-25T08:36:16.524Z,11.19
2016-04-25T08:37:16.542Z,11.19
2016-04-25T08:38:16.560Z,11.35
2016-04-25T08:39:16.563Z,11.36
2016-04-25T08:40:16.597Z,11.41
2016-04-25T08:41:16.620Z,11.4
2016-04-25T08:42:16.638Z,11.48
2016-04-25T08:43:16.657Z,11.55
2016-04-25T08:44:17.050Z,11.47
2016-04-25T08:45:16.694Z,11.52
2016-04-25T08:46:16.712Z,11.54
2016-04-25T08:47:16.730Z,11.6
2016-04-25T08:48:16.748Z,11.65
2016-04-25T08:49:16.767Z,11.63
2016-04-25T08:50:16.785Z,11.65
2016-04-25T08:51:16.803Z,11.7
2016-04-25T08:52:16.822Z,11.7
2016-04-25T08:53:16.856Z,11.77
2016-04-25T08:54:16.858Z,11.72
2016-04-25T08:55:16.876Z,11.78
2016-04-25T08:56:16.895Z,11.73
2016-04-25T08:57:16.913Z,11.73
2016-04-25T08:58:17.134Z,11.9
2016-04-25T08:59:17.497Z,11.9
2016-04-25T09:00:17.000Z,12.07
2016-04-25T09:01:16.986Z,12.06
2016-04-25T09:02:17.005Z,12.12
2016-04-25T09:03:17.022Z,12.21
2016-04-25T09:04:17.041Z,12.28
2016-04-25T09:05:17.060Z,12.31
2016-04-25T09:06:17.078Z,12.35
2016-04-25T09:07:17.112Z,12.42
2016-04-25T09:08:17.130Z,12.49
2016-04-25T09:09:17.321Z,12.46
2016-04-25T09:10:17.167Z,12.5
2016-04-25T09:11:17.185Z,12.54
2016-04-25T09:12:17.204Z,12.67
2016-04-25T09:13:17.237Z,12.65
2016-04-25T09:14:17.115Z,12.65
2016-04-25T09:15:17.259Z,12.7
2016-04-25T09:16:17.307Z,12.79
2016-04-25T09:17:17.299Z,12.75
2016-04-25T09:18:17.333Z,12.98
2016-04-25T09:19:17.336Z,13.03
2016-04-25T09:20:17.354Z,13.09
2016-04-25T09:21:17.372Z,13
2016-04-25T09:22:17.391Z,13.19
2016-04-25T09:23:17.410Z,13.22
2016-04-25T09:24:17.427Z,13.2
2016-04-25T09:25:17.446Z,13.27
2016-04-25T09:26:17.870Z,13.33
2016-04-25T09:27:17.482Z,13.18
2016-04-25T09:28:17.360Z,13.35
2016-04-25T09:29:19.832Z,13.37
2016-04-25T09:30:16.803Z,13.33
2016-04-25T09:31:17.587Z,13.46
2016-04-25T09:32:17.573Z,13.49
2016-04-25T09:33:17.608Z,13.52
2016-04-25T09:34:17.657Z,13.53
2016-04-25T09:35:17.644Z,13.6
2016-04-25T09:36:17.678Z,13.65
2016-04-25T09:37:17.697Z,13.72
2016-04-25T09:38:17.731Z,13.75
2016-04-25T09:39:18.358Z,13.78
2016-04-25T09:40:17.751Z,13.87
2016-04-25T09:41:17.770Z,13.92
2016-04-25T09:42:17.788Z,13.92
2016-04-25T09:43:17.806Z,13.97
2016-04-25T09:44:18.559Z,14.1
2016-04-25T09:45:17.843Z,14.14
2016-04-25T09:46:17.861Z,14.2
2016-04-25T09:47:17.880Z,14.18
2016-04-25T09:48:17.898Z,14.32
2016-04-25T09:49:19.244Z,14.4
2016-04-25T09:50:17.200Z,14.54
2016-04-25T09:51:17.969Z,14.68
2016-04-25T09:52:17.987Z,14.7
2016-04-25T09:53:18.005Z,14.72
2016-04-25T09:54:18.038Z,14.73
2016-04-25T09:55:18.057Z,14.73
2016-04-25T09:56:17.919Z,14.77
2016-04-25T09:57:18.094Z,14.81
2016-04-25T09:58:18.112Z,14.79
2016-04-25T09:59:17.240Z,14.79
2016-04-25T10:00:18.165Z,14.81
2016-04-25T10:01:18.183Z,14.79
2016-04-25T10:02:18.232Z,14.82
2016-04-25T10:03:18.235Z,14.78
2016-04-25T10:04:18.253Z,14.79
2016-04-25T10:05:18.272Z,14.77
2016-04-25T10:06:18.275Z,14.68
2016-04-25T10:07:18.293Z,14.69
2016-04-25T10:08:18.326Z,14.78
2016-04-25T10:09:18.251Z,14.79
2016-04-25T10:10:18.364Z,14.72
2016-04-25T10:11:18.382Z,14.72
2016-04-25T10:12:18.416Z,14.73
2016-04-25T10:13:18.433Z,14.81
2016-04-25T10:14:20.359Z,14.79
2016-04-25T10:15:18.471Z,14.85
2016-04-25T10:16:18.505Z,14.84
2016-04-25T10:17:18.508Z,14.82
2016-04-25T10:18:18.525Z,14.91
2016-04-25T10:19:18.560Z,14.94
2016-04-25T10:20:18.578Z,14.97
2016-04-25T10:21:18.597Z,15.03
2016-04-25T10:22:18.614Z,14.99
2016-04-25T10:23:18.632Z,15.03
2016-04-25T10:24:18.651Z,15.09
2016-04-25T10:25:18.685Z,15.03
2016-04-25T10:26:18.704Z,15.03
2016-04-25T10:27:18.722Z,15.09
2016-04-25T10:28:18.740Z,15.04
2016-04-25T10:29:21.274Z,15.03
2016-04-25T10:30:18.855Z,14.92
2016-04-25T10:31:18.848Z,14.94
2016-04-25T10:32:18.850Z,14.99
2016-04-25T10:33:18.852Z,14.91
2016-04-25T10:34:19.870Z,14.89
2016-04-25T10:35:28.590Z,14.89
2016-04-25T10:36:18.918Z,14.92
2016-04-25T10:37:18.920Z,14.92
2016-04-25T10:38:18.954Z,14.88
2016-04-25T10:39:18.973Z,14.85
2016-04-25T10:40:19.007Z,14.86
2016-04-25T10:41:19.026Z,14.97
2016-04-25T10:42:19.043Z,15.03
2016-04-25T10:43:19.077Z,14.89
2016-04-25T10:44:19.455Z,14.96
2016-04-25T10:45:19.130Z,14.99
2016-04-25T10:46:19.133Z,14.92
2016-04-25T10:47:19.150Z,14.89
2016-04-25T10:48:19.184Z,14.84
2016-04-25T10:49:20.547Z,14.84
2016-04-25T10:50:19.222Z,14.77
2016-04-25T10:51:19.255Z,14.77
2016-04-25T10:52:19.258Z,14.84
2016-04-25T10:53:19.291Z,14.79
2016-04-25T10:54:19.310Z,14.79
2016-04-25T10:55:19.343Z,14.7
2016-04-25T10:56:19.378Z,14.79
2016-04-25T10:57:19.412Z,14.72
2016-04-25T10:58:19.399Z,14.81
2016-04-25T10:59:20.917Z,14.81
2016-04-25T11:00:19.436Z,14.86
2016-04-25T11:01:19.469Z,14.91
2016-04-25T11:02:19.472Z,14.89
2016-04-25T11:03:19.506Z,15.03
2016-04-25T11:04:19.540Z,15.17
2016-04-25T11:05:19.543Z,15.11
2016-04-25T11:06:19.561Z,15.09
2016-04-25T11:07:19.595Z,15.15
2016-04-25T11:08:19.598Z,15.1
2016-04-25T11:09:19.632Z,15.14
2016-04-25T11:10:19.634Z,14.97
2016-04-25T11:11:19.668Z,15.06
2016-04-25T11:12:19.687Z,15.06
2016-04-25T11:13:19.705Z,15.02
2016-04-25T11:14:19.582Z,15.11
2016-04-25T11:15:19.757Z,15.15
2016-04-25T11:16:19.775Z,15.03
2016-04-25T11:17:19.809Z,15.19
2016-04-25T11:18:19.812Z,15.17
2016-04-25T11:19:19.847Z,15.14
2016-04-25T11:20:19.864Z,15.14
2016-04-25T11:21:19.883Z,15.24
2016-04-25T11:22:19.901Z,15.24
2016-04-25T11:23:19.950Z,15.22
2016-04-25T11:24:19.969Z,15.27
2016-04-25T11:25:19.971Z,15.24
2016-04-25T11:26:19.990Z,15.35
2016-04-25T11:27:20.008Z,15.39
2016-04-25T11:28:20.027Z,15.49
2016-04-25T11:29:20.061Z,15.52
2016-04-25T11:30:20.094Z,15.54
2016-04-25T11:31:20.097Z,15.7
2016-04-25T11:32:20.116Z,15.7
2016-04-25T11:33:20.149Z,15.76
2016-04-25T11:34:20.183Z,15.86
2016-04-25T11:35:20.201Z,15.92
2016-04-25T11:36:20.204Z,16.02
2016-04-25T11:37:20.238Z,16.01
2016-04-25T11:38:20.272Z,16.09
2016-04-25T11:39:20.275Z,16.12
2016-04-25T11:40:27.793Z,16.13
2016-04-25T11:41:20.326Z,16.17
2016-04-25T11:42:20.345Z,16.2
2016-04-25T11:43:20.364Z,16.24
2016-04-25T11:44:20.553Z,16.24
2016-04-25T11:45:20.416Z,16.24
2016-04-25T11:46:20.434Z,16.28
2016-04-25T11:47:20.176Z,16.32
2016-04-25T11:48:20.475Z,16.31
2016-04-25T11:49:20.514Z,16.39
2016-04-25T11:50:20.361Z,16.36
2016-04-25T11:51:20.552Z,16.32
2016-04-25T11:52:20.569Z,16.39
2016-04-25T11:53:20.608Z,16.31
2016-04-25T11:54:20.610Z,16.33
2016-04-25T11:55:20.645Z,16.26
2016-04-25T11:56:21.132Z,16.28
2016-04-25T11:57:20.682Z,16.21
2016-04-25T11:58:20.716Z,16.38
2016-04-25T11:59:21.453Z,16.36
2016-04-25T12:00:20.752Z,16.43
2016-04-25T12:01:20.770Z,16.36
2016-04-25T12:02:20.804Z,16.5
2016-04-25T12:03:20.823Z,16.57
2016-04-25T12:04:20.842Z,16.58
2016-04-25T12:05:20.875Z,16.64
2016-04-25T12:06:20.893Z,16.76
2016-04-25T12:07:20.911Z,16.81
2016-04-25T12:08:20.930Z,16.78
2016-04-25T12:09:20.948Z,16.76
2016-04-25T12:10:20.983Z,16.78
2016-04-25T12:11:20.985Z,16.75
2016-04-25T12:12:21.019Z,16.76
2016-04-25T12:13:21.053Z,16.72
2016-04-25T12:14:22.024Z,16.75
2016-04-25T12:15:21.089Z,16.75
2016-04-25T12:16:21.107Z,16.68
2016-04-25T12:17:21.141Z,16.65
2016-04-25T12:18:21.160Z,16.65
2016-04-25T12:19:21.210Z,16.78
2016-04-25T12:20:21.197Z,16.76
2016-04-25T12:21:21.230Z,16.75
2016-04-25T12:22:21.249Z,16.84
2016-04-25T12:23:21.283Z,16.76
2016-04-25T12:24:21.301Z,16.79
2016-04-25T12:25:21.319Z,16.83
2016-04-25T12:26:21.354Z,16.76
2016-04-25T12:27:21.371Z,16.81
2016-04-25T12:28:21.390Z,16.75
2016-04-25T12:29:21.252Z,16.76
2016-04-25T12:30:21.302Z,16.76
2016-04-25T12:31:21.460Z,16.78
2016-04-25T12:32:21.479Z,16.75
2016-04-25T12:33:21.498Z,16.75
2016-04-25T12:34:21.531Z,16.69
2016-04-25T12:35:21.550Z,16.72
2016-04-25T12:36:21.411Z,16.68
2016-04-25T12:37:21.461Z,16.78
2016-04-25T12:38:21.620Z,16.74
2016-04-25T12:39:21.653Z,16.81
2016-04-25T12:40:21.656Z,16.69
2016-04-25T12:41:21.691Z,16.75
2016-04-25T12:42:21.725Z,16.75
2016-04-25T12:43:21.742Z,16.83
2016-04-25T12:44:22.745Z,16.78
2016-04-25T12:45:21.780Z,17.01
2016-04-25T12:46:21.813Z,16.94
2016-04-25T12:47:21.833Z,17.01
2016-04-25T12:48:21.850Z,17.14
2016-04-25T12:49:21.868Z,17.09
2016-04-25T12:50:21.919Z,17.15
2016-04-25T12:51:21.921Z,17.19
2016-04-25T12:52:21.938Z,17.29
2016-04-25T12:53:21.957Z,17.34
2016-04-25T12:54:21.835Z,17.46
2016-04-25T12:55:22.009Z,17.48
2016-04-25T12:56:22.033Z,17.49
2016-04-25T12:57:22.067Z,17.51
2016-04-25T12:58:22.101Z,17.59
2016-04-25T12:59:22.119Z,17.65
2016-04-25T13:00:22.137Z,17.59
2016-04-25T13:01:22.156Z,17.64
2016-04-25T13:02:22.190Z,17.63
2016-04-25T13:03:22.208Z,17.65
2016-04-25T13:04:22.226Z,17.74
2016-04-25T13:05:22.245Z,17.76
2016-04-25T13:06:22.153Z,17.79
2016-04-25T13:07:22.297Z,17.82
2016-04-25T13:08:22.518Z,17.89
2016-04-25T13:09:22.365Z,18.01